Arklow Spray — C6VK8 — position and weather

sailwx.info

Track history (hours):
 
Tides and Currents Weather Stations Pressure Air Temp Water Temp Dewpoint Dewpoint Depression Visibility Wind Speed Wind Dir Waves Ship Positions

Arklow Spray

Last reported at 2016-Aug-26 17:23 UTC. Time now 2016-Aug-27 01:14 UTC.
Position N 54°40' E 003°19'.

Length 90 m; draft 2.9 m.

Type: Cargo ship. MMSI: 309914000.

Date/timePositionNaut miles runAvg speedWind from/ knotsBaromVisibWave heightAir tempDewpointWater temp
2016-Aug-26 17:23N 54°40' E 003°19'7 8.7
2016-Aug-26 16:33N 54°32' E 003°17'9 8.6
2016-Aug-26 15:33N 54°24' E 003°15'8 8.6
2016-Aug-26 14:34N 54°16' E 003°13'9 8.6
2016-Aug-26 13:33N 54°07' E 003°10'9 8.6
2016-Aug-26 12:32N 53°58' E 003°07'9 9.1
2016-Aug-26 11:33N 53°50' E 003°01'9 9.3
2016-Aug-26 10:33N 53°42' E 002°54'1010.1
2016-Aug-26 09:33N 53°33' E 002°47'81 9.8
2016-Aug-26 01:18N 52°12' E 002°53'7 9.7
2016-Aug-26 00:33N 52°05' E 002°57'9 8.6
2016-Aug-25 23:33N 51°57' E 002°53'1110.4
2016-Aug-25 22:33N 51°49' E 002°42'1110.9
2016-Aug-25 21:33N 51°41' E 002°31'1111.3
2016-Aug-25 20:33N 51°32' E 002°19'1211.7
2016-Aug-25 19:33N 51°23' E 002°08'1211.6
2016-Aug-25 18:34N 51°12' E 001°60'1313.1
2016-Aug-25 17:33N 51°04' E 001°43'1312.9
2016-Aug-25 16:33N 50°56' E 001°27'1212.2
2016-Aug-25 15:33N 50°44' E 001°22'4711.2
2016-Aug-25 11:18N 50°22' E 000°16'1110.6
2016-Aug-25 10:17N 50°19' W 000°00'910.1
2016-Aug-25 09:23N 50°17' W 000°14'19 9.2
2016-Aug-25 07:19N 50°12' W 000°43'23 7.7
2016-Aug-25 04:20N 50°06' W 001°18'7 8.9
2016-Aug-25 03:33N 50°04' W 001°28'1010.0
2016-Aug-25 02:33N 50°01' W 001°43'2511.7
2016-Aug-25 00:26N 49°55' W 002°20'1011.6
2016-Aug-24 23:33N 49°52' W 002°35'1111.0
2016-Aug-24 22:33N 49°49' W 002°52'1410.3
2016-Aug-24 21:14N 49°42' W 003°10'7 9.8
2016-Aug-24 20:33N 49°39' W 003°19'9 9.5
2016-Aug-24 19:33N 49°34' W 003°32'11 8.9
2016-Aug-24 18:22N 49°29' W 003°46'54 7.9
2016-Aug-24 11:31N 49°02' W 004°57'8 8.8
2016-Aug-24 10:33N 48°58' W 005°08'10 9.9
2016-Aug-24 09:33N 48°53' W 005°21'1111.3
2016-Aug-24 08:33N 48°47' W 005°36'4010.0
2016-Aug-24 04:34N 48°08' W 005°21'1010.2
2016-Aug-24 03:33N 47°59' W 005°13'1110.8
2016-Aug-24 02:33N 47°54' W 004°59'1111.2
2016-Aug-24 01:34N 47°48' W 004°45'1110.5
2016-Aug-24 00:33N 47°43' W 004°31'1010.0
2016-Aug-23 23:34N 47°38' W 004°18'1110.4
2016-Aug-23 22:31N 47°33' W 004°04'1010.8
2016-Aug-23 21:34N 47°27' W 003°51'1110.6
2016-Aug-23 20:33N 47°22' W 003°38'1010.3
2016-Aug-23 19:33N 47°17' W 003°25'1010.0
2016-Aug-23 18:33N 47°12' W 003°12'10 9.8
2016-Aug-23 17:33N 47°07' W 002°59'1110.6
2016-Aug-23 16:33N 47°02' W 002°46'9 8.7
2016-Aug-23 15:33N 47°03' W 002°33'7 6.3
2016-Aug-23 14:27N 47°09' W 002°27'0 0.2
2016-Aug-23 13:33N 47°09' W 002°27'8 7.8
2016-Aug-23 12:33N 47°13' W 002°17'1212.1
2016-Aug-23 11:33N 47°17' W 002°00'1212.4
2016-Aug-23 10:33N 47°12' W 001°43'4 4.2
2016-Aug-23 09:32N 47°12' W 001°37'0 0.0
2016-Aug-23 08:32N 47°12' W 001°37'0 0.0
2016-Aug-23 07:29N 47°12' W 001°37'0 0.0
2016-Aug-23 06:26N 47°12' W 001°37'0 0.0
2016-Aug-23 05:32N 47°12' W 001°37'0 0.0
2016-Aug-23 04:32N 47°12' W 001°37'0 0.0
2016-Aug-23 03:32N 47°12' W 001°37'0 0.0
2016-Aug-23 02:32N 47°12' W 001°37'0 0.0
2016-Aug-23 01:23N 47°12' W 001°37'0 0.0
2016-Aug-23 00:32N 47°12' W 001°37'0 0.0
2016-Aug-22 23:32N 47°12' W 001°37'0 0.0
2016-Aug-22 22:32N 47°12' W 001°37'0 0.0
2016-Aug-22 21:33N 47°12' W 001°37'0 0.0
2016-Aug-22 20:32N 47°12' W 001°37'0 0.0
2016-Aug-22 19:32N 47°12' W 001°37'0 0.0
2016-Aug-22 18:32N 47°12' W 001°37'0 0.0
2016-Aug-22 17:32N 47°12' W 001°37'0 0.0
2016-Aug-22 16:32N 47°12' W 001°37'0 0.0
2016-Aug-22 15:32N 47°12' W 001°37'0 0.0
2016-Aug-22 14:32N 47°12' W 001°37'0 0.0
2016-Aug-22 13:32N 47°12' W 001°37'0 0.0
2016-Aug-22 12:32N 47°12' W 001°37'0 0.0
2016-Aug-22 11:29N 47°12' W 001°37'0 0.0
2016-Aug-22 10:26N 47°12' W 001°37'0 0.0
2016-Aug-22 09:32N 47°12' W 001°37'0 0.0
2016-Aug-22 08:31N 47°12' W 001°37'0 0.0
2016-Aug-22 07:31N 47°12' W 001°37'0 0.0
2016-Aug-22 06:31N 47°12' W 001°37'0 0.0
2016-Aug-22 05:31N 47°12' W 001°37'0 0.0
2016-Aug-22 04:31N 47°12' W 001°37'0 0.0
2016-Aug-22 03:31N 47°12' W 001°37'0 0.0
2016-Aug-22 02:31N 47°12' W 001°37'0 0.0
2016-Aug-22 01:31N 47°12' W 001°37'0 0.0
2016-Aug-22 00:31N 47°12' W 001°37'0 0.0
2016-Aug-21 23:32N 47°12' W 001°37'0 0.0
2016-Aug-21 22:30N 47°12' W 001°37'0 0.0
2016-Aug-21 21:25N 47°12' W 001°37'0 0.0
2016-Aug-21 20:31N 47°12' W 001°37'0 0.0
2016-Aug-21 19:31N 47°12' W 001°37'0 0.0
2016-Aug-21 18:31N 47°12' W 001°37'0 0.0
2016-Aug-21 17:31N 47°12' W 001°37'0 0.0
2016-Aug-21 16:31N 47°12' W 001°37'0 0.0
2016-Aug-21 15:31N 47°12' W 001°37'0 0.0
2016-Aug-21 14:28N 47°12' W 001°37'0 0.0
2016-Aug-21 13:31N 47°12' W 001°37'0 0.0
2016-Aug-21 12:31N 47°12' W 001°37'0 0.0
2016-Aug-21 11:31N 47°12' W 001°37'0 0.0
2016-Aug-21 10:31N 47°12' W 001°37'0 0.0
2016-Aug-21 09:31N 47°12' W 001°37'0 0.0
2016-Aug-21 08:31N 47°12' W 001°37'0 0.0
2016-Aug-21 07:31N 47°12' W 001°37'0 0.0
2016-Aug-21 06:31N 47°12' W 001°37'0 0.0
2016-Aug-21 05:28N 47°12' W 001°37'0 0.0
2016-Aug-21 04:34N 47°12' W 001°37'10 9.6
2016-Aug-21 03:33N 47°15' W 001°51'1312.9
2016-Aug-21 02:34N 47°18' W 002°09'1211.6
2016-Aug-21 01:34N 47°09' W 002°20'10 9.8
2016-Aug-21 00:33N 47°03' W 002°31'9 9.2
2016-Aug-20 23:33N 47°00' W 002°44'10 9.6
2016-Aug-20 22:33N 47°05' W 002°57'10 9.7
2016-Aug-20 21:33N 47°10' W 003°09'9 9.5
2016-Aug-20 20:33N 47°14' W 003°21'1010.0
2016-Aug-20 19:32N 47°20' W 003°34'10 9.7
2016-Aug-20 18:33N 47°24' W 003°46'4210.1
2016-Aug-20 14:20N 47°46' W 004°40'7 9.3
2016-Aug-20 13:33N 47°50' W 004°49'8 8.3
2016-Aug-20 12:33N 47°54' W 004°60'  
2016-Aug-16 18:33N 54°06' W 005°29'1110.7
2016-Aug-16 17:33N 54°16' W 005°22'  
Track history (hours):
 
Tides and Currents Weather Stations Pressure Air Temp Water Temp Dewpoint Dewpoint Depression Visibility Wind Speed Wind Dir Waves Ship Positions

Arklow Spray

Last reported at 2016-Aug-26 17:23 UTC. Time now 2016-Aug-27 01:14 UTC.
Position N 54°40' E 003°19'.

Length 90 m; draft 2.9 m.

Type: Cargo ship. MMSI: 309914000.

Date/timePositionNaut miles runAvg speedWind from/ knotsBaromVisibWave heightAir tempDewpointWater temp
2016-Aug-26 17:23N 54°40' E 003°19'7 8.7
2016-Aug-26 16:33N 54°32' E 003°17'9 8.6
2016-Aug-26 15:33N 54°24' E 003°15'8 8.6
2016-Aug-26 14:34N 54°16' E 003°13'9 8.6
2016-Aug-26 13:33N 54°07' E 003°10'9 8.6
2016-Aug-26 12:32N 53°58' E 003°07'9 9.1
2016-Aug-26 11:33N 53°50' E 003°01'9 9.3
2016-Aug-26 10:33N 53°42' E 002°54'1010.1
2016-Aug-26 09:33N 53°33' E 002°47'81 9.8
2016-Aug-26 01:18N 52°12' E 002°53'7 9.7
2016-Aug-26 00:33N 52°05' E 002°57'9 8.6
2016-Aug-25 23:33N 51°57' E 002°53'1110.4
2016-Aug-25 22:33N 51°49' E 002°42'1110.9
2016-Aug-25 21:33N 51°41' E 002°31'1111.3
2016-Aug-25 20:33N 51°32' E 002°19'1211.7
2016-Aug-25 19:33N 51°23' E 002°08'1211.6
2016-Aug-25 18:34N 51°12' E 001°60'1313.1
2016-Aug-25 17:33N 51°04' E 001°43'1312.9
2016-Aug-25 16:33N 50°56' E 001°27'1212.2
2016-Aug-25 15:33N 50°44' E 001°22'4711.2
2016-Aug-25 11:18N 50°22' E 000°16'1110.6
2016-Aug-25 10:17N 50°19' W 000°00'910.1
2016-Aug-25 09:23N 50°17' W 000°14'19 9.2
2016-Aug-25 07:19N 50°12' W 000°43'23 7.7
2016-Aug-25 04:20N 50°06' W 001°18'7 8.9
2016-Aug-25 03:33N 50°04' W 001°28'1010.0
2016-Aug-25 02:33N 50°01' W 001°43'2511.7
2016-Aug-25 00:26N 49°55' W 002°20'1011.6
2016-Aug-24 23:33N 49°52' W 002°35'1111.0
2016-Aug-24 22:33N 49°49' W 002°52'1410.3
2016-Aug-24 21:14N 49°42' W 003°10'7 9.8
2016-Aug-24 20:33N 49°39' W 003°19'9 9.5
2016-Aug-24 19:33N 49°34' W 003°32'11 8.9
2016-Aug-24 18:22N 49°29' W 003°46'54 7.9
2016-Aug-24 11:31N 49°02' W 004°57'8 8.8
2016-Aug-24 10:33N 48°58' W 005°08'10 9.9
2016-Aug-24 09:33N 48°53' W 005°21'1111.3
2016-Aug-24 08:33N 48°47' W 005°36'4010.0
2016-Aug-24 04:34N 48°08' W 005°21'1010.2
2016-Aug-24 03:33N 47°59' W 005°13'1110.8
2016-Aug-24 02:33N 47°54' W 004°59'1111.2
2016-Aug-24 01:34N 47°48' W 004°45'1110.5
2016-Aug-24 00:33N 47°43' W 004°31'1010.0
2016-Aug-23 23:34N 47°38' W 004°18'1110.4
2016-Aug-23 22:31N 47°33' W 004°04'1010.8
2016-Aug-23 21:34N 47°27' W 003°51'1110.6
2016-Aug-23 20:33N 47°22' W 003°38'1010.3
2016-Aug-23 19:33N 47°17' W 003°25'1010.0
2016-Aug-23 18:33N 47°12' W 003°12'10 9.8
2016-Aug-23 17:33N 47°07' W 002°59'1110.6
2016-Aug-23 16:33N 47°02' W 002°46'9 8.7
2016-Aug-23 15:33N 47°03' W 002°33'7 6.3
2016-Aug-23 14:27N 47°09' W 002°27'0 0.2
2016-Aug-23 13:33N 47°09' W 002°27'8 7.8
2016-Aug-23 12:33N 47°13' W 002°17'1212.1
2016-Aug-23 11:33N 47°17' W 002°00'1212.4
2016-Aug-23 10:33N 47°12' W 001°43'4 4.2
2016-Aug-23 09:32N 47°12' W 001°37'0 0.0
2016-Aug-23 08:32N 47°12' W 001°37'0 0.0
2016-Aug-23 07:29N 47°12' W 001°37'0 0.0
2016-Aug-23 06:26N 47°12' W 001°37'0 0.0
2016-Aug-23 05:32N 47°12' W 001°37'0 0.0
2016-Aug-23 04:32N 47°12' W 001°37'0 0.0
2016-Aug-23 03:32N 47°12' W 001°37'0 0.0
2016-Aug-23 02:32N 47°12' W 001°37'0 0.0
2016-Aug-23 01:23N 47°12' W 001°37'0 0.0
2016-Aug-23 00:32N 47°12' W 001°37'0 0.0
2016-Aug-22 23:32N 47°12' W 001°37'0 0.0
2016-Aug-22 22:32N 47°12' W 001°37'0 0.0
2016-Aug-22 21:33N 47°12' W 001°37'0 0.0
2016-Aug-22 20:32N 47°12' W 001°37'0 0.0
2016-Aug-22 19:32N 47°12' W 001°37'0 0.0
2016-Aug-22 18:32N 47°12' W 001°37'0 0.0
2016-Aug-22 17:32N 47°12' W 001°37'0 0.0
2016-Aug-22 16:32N 47°12' W 001°37'0 0.0
2016-Aug-22 15:32N 47°12' W 001°37'0 0.0
2016-Aug-22 14:32N 47°12' W 001°37'0 0.0
2016-Aug-22 13:32N 47°12' W 001°37'0 0.0
2016-Aug-22 12:32N 47°12' W 001°37'0 0.0
2016-Aug-22 11:29N 47°12' W 001°37'0 0.0
2016-Aug-22 10:26N 47°12' W 001°37'0 0.0
2016-Aug-22 09:32N 47°12' W 001°37'0 0.0
2016-Aug-22 08:31N 47°12' W 001°37'0 0.0
2016-Aug-22 07:31N 47°12' W 001°37'0 0.0
2016-Aug-22 06:31N 47°12' W 001°37'0 0.0
2016-Aug-22 05:31N 47°12' W 001°37'0 0.0
2016-Aug-22 04:31N 47°12' W 001°37'0 0.0
2016-Aug-22 03:31N 47°12' W 001°37'0 0.0
2016-Aug-22 02:31N 47°12' W 001°37'0 0.0
2016-Aug-22 01:31N 47°12' W 001°37'0 0.0
2016-Aug-22 00:31N 47°12' W 001°37'0 0.0
2016-Aug-21 23:32N 47°12' W 001°37'0 0.0
2016-Aug-21 22:30N 47°12' W 001°37'0 0.0
2016-Aug-21 21:25N 47°12' W 001°37'0 0.0
2016-Aug-21 20:31N 47°12' W 001°37'0 0.0
2016-Aug-21 19:31N 47°12' W 001°37'0 0.0
2016-Aug-21 18:31N 47°12' W 001°37'0 0.0
2016-Aug-21 17:31N 47°12' W 001°37'0 0.0
2016-Aug-21 16:31N 47°12' W 001°37'0 0.0
2016-Aug-21 15:31N 47°12' W 001°37'0 0.0
2016-Aug-21 14:28N 47°12' W 001°37'0 0.0
2016-Aug-21 13:31N 47°12' W 001°37'0 0.0
2016-Aug-21 12:31N 47°12' W 001°37'0 0.0
2016-Aug-21 11:31N 47°12' W 001°37'0 0.0
2016-Aug-21 10:31N 47°12' W 001°37'0 0.0
2016-Aug-21 09:31N 47°12' W 001°37'0 0.0
2016-Aug-21 08:31N 47°12' W 001°37'0 0.0
2016-Aug-21 07:31N 47°12' W 001°37'0 0.0
2016-Aug-21 06:31N 47°12' W 001°37'0 0.0
2016-Aug-21 05:28N 47°12' W 001°37'0 0.0
2016-Aug-21 04:34N 47°12' W 001°37'10 9.6
2016-Aug-21 03:33N 47°15' W 001°51'1312.9
2016-Aug-21 02:34N 47°18' W 002°09'1211.6
2016-Aug-21 01:34N 47°09' W 002°20'10 9.8
2016-Aug-21 00:33N 47°03' W 002°31'9 9.2
2016-Aug-20 23:33N 47°00' W 002°44'10 9.6
2016-Aug-20 22:33N 47°05' W 002°57'10 9.7
2016-Aug-20 21:33N 47°10' W 003°09'9 9.5
2016-Aug-20 20:33N 47°14' W 003°21'1010.0
2016-Aug-20 19:32N 47°20' W 003°34'10 9.7
2016-Aug-20 18:33N 47°24' W 003°46'4210.1
2016-Aug-20 14:20N 47°46' W 004°40'7 9.3
2016-Aug-20 13:33N 47°50' W 004°49'8 8.3
2016-Aug-20 12:33N 47°54' W 004°60'  
2016-Aug-16 18:33N 54°06' W 005°29'1110.7
2016-Aug-16 17:33N 54°16' W 005°22'  

Dump ship's entire track history